Latest Weather Observations for Friendly Beaches

IDT60801

Issued at 8:35 pm EST Saturday 19 April 2014 (issued every 30 minutes, with the page automatically refreshed every 10 minutes)

About weather observations | Map of weather stations | Latest weather observations for TAS | Other Formats
Station Details ID: 092114 Name: FRIENDLY BEACHES Lat: -42.00 Lon: 148.28 Height: 55.0 m
Data from the previous 72 hours. | See also: Recent months at Friendly Beaches
Date/Time
EST
Temp
°C
App
Temp
°C
Dew
Point
Rel
Hum
%
Delta-T
°C
Wind Press
QNH
hPa
Press
MSL
hPa
Rain
since 9 am
mm
Dir
 
Spd
km/h
Gust
km/h
Spd
kts
Gust
kts
19/08:30pm 9.1 6.2 4.5 73 2.0 W 9 11 5 6 1015.0 - 0.0
19/08:00pm 9.5 7.1 4.1 69 2.4 WNW 6 6 3 3 1014.8 1014.8 0.0
19/07:30pm 9.4 7.7 4.0 69 2.4 WSW 2 4 1 2 1014.7 - 0.0
19/07:00pm 10.7 8.3 4.2 64 2.9 S 6 9 3 5 1014.7 1014.7 0.0
19/06:30pm 11.8 9.9 4.8 62 3.2 SW 4 4 2 2 1014.6 - 0.0
19/06:00pm 11.9 10.0 4.9 62 3.2 WNW 4 6 2 3 1014.5 1014.5 0.0
19/05:30pm 12.5 10.2 4.7 59 3.6 WSW 6 7 3 4 1014.4 - 0.0
19/05:00pm 13.0 10.6 4.4 56 3.9 SW 6 9 3 5 1014.4 1014.4 0.0
19/04:30pm 13.4 11.3 5.6 59 3.7 S 6 7 3 4 1014.4 - 0.0
19/04:00pm 13.6 11.1 4.7 55 4.1 SSW 7 11 4 6 1014.4 1014.4 0.0
19/03:30pm 14.2 10.9 4.8 53 4.4 SSW 11 20 6 11 1014.3 - 0.0
19/03:00pm 14.0 11.1 4.6 53 4.4 SSW 9 15 5 8 1014.2 1014.2 0.0
19/02:30pm 14.3 11.0 4.3 51 4.6 S 11 22 6 12 1014.1 - 0.0
19/02:00pm 15.2 11.2 3.0 44 5.5 SSW 13 22 7 12 1014.0 1014.0 0.0
19/01:30pm 15.3 10.9 2.8 43 5.6 WSW 15 22 8 12 1014.1 - 0.0
19/01:00pm 14.6 9.3 1.8 42 5.6 SSW 19 30 10 16 1014.2 1014.2 0.0
19/12:30pm 15.8 11.2 3.6 44 5.6 SW 17 32 9 17 1014.4 - 0.0
19/12:00pm 15.3 9.6 2.8 43 5.6 SSW 22 37 12 20 1014.7 1014.7 0.0
19/11:30am 14.9 10.0 4.0 48 5.0 SSW 19 30 10 16 1014.9 - 0.0
19/11:00am 14.1 7.8 3.6 49 4.8 SSW 26 43 14 23 1015.0 1015.0 0.0
19/10:30am 13.9 8.0 3.7 50 4.6 SW 24 43 13 23 1015.0 - 0.0
19/10:00am 13.3 8.5 4.7 56 4.0 WSW 19 28 10 15 1014.8 1014.8 0.0
19/09:30am 12.4 7.6 4.6 59 3.6 WSW 19 32 10 17 1014.7 - 0.0
19/09:00am 11.2 7.2 4.7 64 2.9 W 15 26 8 14 1015.1 1015.1 2.0
19/08:30am 10.3 5.9 4.5 67 2.6 WSW 17 26 9 14 1015.2 - 2.0
19/08:00am 9.2 5.1 4.4 72 2.1 WSW 15 26 8 14 1014.9 1014.9 2.0
19/07:30am 8.3 3.8 4.3 76 1.8 WSW 17 24 9 13 1014.7 - 2.0
19/07:00am 7.4 4.0 3.8 78 1.5 W 11 17 6 9 1014.4 1014.4 2.0
19/06:30am 7.7 4.6 3.6 75 1.8 W 9 15 5 8 1014.1 - 2.0
19/06:00am 8.0 4.2 3.7 74 1.9 W 13 17 7 9 1013.7 1013.7 2.0
19/05:30am 8.1 5.1 3.9 75 1.8 W 9 15 5 8 1013.6 - 2.0
19/05:00am 8.6 4.4 4.0 73 2.0 WSW 15 24 8 13 1013.3 1013.3 2.0
19/04:30am 8.4 4.2 3.7 72 2.0 WSW 15 26 8 14 1013.1 - 2.0
19/04:00am 7.7 4.3 3.9 77 1.6 WSW 11 17 6 9 1013.1 1013.1 2.0
19/03:30am 7.9 5.2 3.8 75 1.8 W 7 13 4 7 1013.1 - 2.0
19/03:00am 8.3 4.5 3.9 74 1.9 W 13 19 7 10 1013.0 1013.0 2.0
19/02:30am 8.7 5.7 3.9 72 2.1 WSW 9 17 5 9 1013.1 - 2.0
19/02:00am 9.3 5.8 3.7 68 2.4 W 11 19 6 10 1013.2 1013.2 2.0
19/01:30am 9.7 6.3 4.1 68 2.5 W 11 17 6 9 1013.2 - 2.0
19/01:00am 9.6 6.6 4.0 68 2.5 W 9 19 5 10 1013.1 1013.1 2.0
19/12:30am 9.5 6.5 4.3 70 2.3 W 9 13 5 7 1012.8 - 2.0
19/12:00am 9.8 6.1 4.4 69 2.4 W 13 19 7 10 1012.8 1012.8 2.0
 
Date/Time
EST
Temp
°C
App
Temp
°C
Dew
Point
Rel
Hum
%
Delta-T
°C
Wind Press
QNH
hPa
Press
MSL
hPa
Rain
since 9 am
mm
Dir
 
Spd
km/h
Gust
km/h
Spd
kts
Gust
kts
18/11:30pm 9.8 6.5 4.6 70 2.3 W 11 20 6 11 1012.6 - 2.0
18/11:00pm 10.2 7.3 4.8 69 2.4 W 9 20 5 11 1012.6 1012.6 2.0
18/10:30pm 10.2 6.2 4.8 69 2.4 WSW 15 22 8 12 1012.2 - 2.0
18/10:00pm 10.3 5.9 4.5 67 2.6 W 17 28 9 15 1012.2 1012.2 2.0
18/09:30pm 10.6 6.2 4.5 66 2.7 W 17 24 9 13 1012.0 - 2.0
18/09:00pm 10.9 6.1 4.8 66 2.8 WSW 19 30 10 16 1011.8 1011.8 2.0
18/08:30pm 11.0 6.6 4.7 65 2.9 WSW 17 26 9 14 1011.5 - 2.0
18/08:00pm 11.2 7.5 4.7 64 3.0 WSW 13 22 7 12 1011.4 1011.4 2.0
18/07:30pm 11.8 6.9 4.1 59 3.5 WSW 19 33 10 18 1010.9 - 2.0
18/07:00pm 11.9 7.0 3.9 58 3.6 WSW 19 32 10 17 1010.7 1010.7 2.0
18/06:30pm 12.3 7.3 4.5 59 3.6 WSW 20 32 11 17 1010.2 - 2.0
18/06:00pm 12.7 7.9 4.7 58 3.7 WSW 19 30 10 16 1009.5 1009.5 2.0
18/05:30pm 13.4 8.0 4.6 55 4.1 WSW 22 41 12 22 1008.9 - 2.0
18/05:00pm 13.2 9.4 5.9 61 3.5 SW 15 26 8 14 1008.6 1008.6 2.0
18/04:30pm 13.4 10.5 6.3 62 3.4 WSW 11 19 6 10 1008.2 - 2.0
18/04:00pm 14.4 10.7 6.5 59 3.8 WSW 15 22 8 12 1008.0 1008.0 2.0
18/03:30pm 14.2 9.6 6.6 60 3.7 WSW 20 35 11 19 1007.8 - 2.0
18/03:00pm 12.8 8.5 6.8 67 2.9 WSW 19 30 10 16 1007.5 1007.4 2.0
18/02:30pm 11.7 8.2 7.4 75 2.1 SW 15 24 8 13 1007.5 - 2.0
18/02:00pm 11.4 7.7 7.9 79 1.7 WSW 17 28 9 15 1006.6 1006.5 2.0
18/01:30pm 11.8 8.1 7.9 77 1.9 WSW 17 30 9 16 1006.8 - 1.8
18/01:00pm 12.8 8.9 8.5 75 2.2 WSW 19 30 10 16 1007.2 1007.1 1.6
18/12:30pm 12.4 8.6 9.2 81 1.6 WSW 19 33 10 18 1007.3 - 1.6
18/12:00pm 12.2 9.7 10.9 92 0.7 WSW 15 20 8 11 1007.8 1007.7 1.4
18/11:30am 17.6 15.9 12.3 71 2.9 NNE 13 20 7 11 1006.8 - 0.0
18/11:00am 19.2 16.5 12.9 67 3.6 NNE 19 28 10 15 1006.6 1006.5 0.0
18/10:30am 19.4 16.6 12.7 65 3.8 NNE 19 30 10 16 1006.9 - 0.0
18/10:00am 18.9 17.1 12.2 65 3.7 N 13 22 7 12 1007.5 1007.4 0.0
18/09:30am 18.1 15.1 11.9 67 3.4 NNE 19 28 10 15 1007.6 - 0.0
18/09:00am 17.2 14.6 12.1 72 2.8 NNE 17 30 9 16 1008.4 1008.4 0.0
18/08:30am 15.9 12.5 10.4 70 2.9 N 19 26 10 14 1009.1 - 0.0
18/08:00am 15.2 12.6 10.6 74 2.4 N 15 26 8 14 1009.6 1009.6 0.0
18/07:30am 13.7 13.2 10.7 82 1.6 NNE 4 7 2 4 1010.1 - 0.0
18/07:00am 12.9 11.9 10.3 84 1.3 NE 6 7 3 4 1010.4 1010.4 0.0
18/06:30am 12.7 11.9 9.7 82 1.5 SSW 4 6 2 3 1010.8 - 0.0
18/06:00am 13.5 12.3 10.3 81 1.7 N 7 11 4 6 1011.1 1011.1 0.0
18/05:30am 11.0 9.3 9.8 92 0.6 NNW 9 15 5 8 1011.4 - 0.0
18/05:00am 11.4 9.9 9.0 85 1.2 NNW 7 11 4 6 1011.8 1011.8 0.0
18/04:30am 10.1 8.6 8.5 90 0.8 NNW 6 9 3 5 1012.1 - 0.0
18/04:00am 10.4 9.8 9.0 91 0.7 NW 2 6 1 3 1012.4 1012.4 0.0
18/03:30am 10.2 8.4 8.0 86 1.1 WNW 7 9 4 5 1012.6 - 0.0
18/03:00am 11.5 10.6 9.2 86 1.2 NE 4 6 2 3 1012.9 1012.9 0.0
18/02:30am 11.7 10.1 8.9 83 1.4 NNW 7 9 4 5 1013.5 - 0.0
18/02:00am 11.5 11.2 8.5 82 1.5 CALM 0 0 0 0 1013.9 1013.9 0.0
18/01:30am 11.6 11.2 8.1 79 1.7 CALM 0 0 0 0 1014.4 - 0.0
18/01:00am 11.7 11.3 8.4 80 1.6 CALM 0 0 0 0 1014.6 1014.6 0.0
18/12:30am 12.0 11.7 8.5 79 1.7 CALM 0 0 0 0 1015.2 - 0.0
18/12:00am 12.9 12.2 8.4 74 2.2 E 2 4 1 2 1015.5 1015.5 0.0
 
Date/Time
EST
Temp
°C
App
Temp
°C
Dew
Point
Rel
Hum
%
Delta-T
°C
Wind Press
QNH
hPa
Press
MSL
hPa
Rain
since 9 am
mm
Dir
 
Spd
km/h
Gust
km/h
Spd
kts
Gust
kts
17/11:30pm 13.0 10.9 8.1 72 2.4 NW 9 13 5 7 1015.9 - 0.0
17/11:00pm 13.6 11.8 7.8 68 2.9 NNW 7 11 4 6 1016.4 1016.4 0.0
17/10:30pm 13.8 11.6 8.0 68 2.9 NNW 9 13 5 7 1016.9 - 0.0
17/10:00pm 13.9 11.8 8.3 69 2.8 NNW 9 13 5 7 1017.2 1017.2 0.0
17/09:30pm 14.3 12.4 9.1 71 2.7 NNW 9 15 5 8 1017.4 - 0.0
17/09:00pm 14.6 12.9 10.0 74 2.4 NNW 9 17 5 9 1017.4 1017.4 0.0
17/08:30pm 14.6 13.1 10.6 77 2.1 NNW 9 15 5 8 1017.4 - 0.0
17/08:00pm 14.9 12.7 10.9 77 2.1 N 13 22 7 12 1017.6 1017.6 0.0
17/07:30pm 15.2 13.1 11.0 76 2.2 N 13 20 7 11 1017.5 - 0.0
17/07:00pm 15.3 12.4 11.1 76 2.2 N 17 24 9 13 1017.5 1017.5 0.0
17/06:30pm 15.4 12.6 11.2 76 2.3 N 17 24 9 13 1017.5 - 0.0
17/06:00pm 15.5 12.3 11.1 75 2.4 N 19 28 10 15 1017.3 1017.3 0.0
17/05:30pm 15.6 12.2 11.2 75 2.4 N 20 33 11 18 1017.2 - 0.0
17/05:00pm 15.9 13.4 10.9 72 2.7 N 15 24 8 13 1017.3 1017.3 0.0
17/04:30pm 16.2 12.8 10.5 69 3.0 NNE 19 30 10 16 1017.5 - 0.0
17/04:00pm 17.4 14.6 11.2 67 3.4 NNE 17 26 9 14 1017.7 1017.7 0.0
17/03:30pm 18.6 15.5 11.7 64 3.8 NNE 19 28 10 15 1018.2 - 0.0
17/03:00pm 19.0 15.4 12.0 64 3.9 NNE 22 32 12 17 1018.5 1018.5 0.0
17/02:30pm 19.5 16.3 12.0 62 4.2 NNE 20 32 11 17 1018.6 - 0.0
17/02:00pm 19.9 16.9 11.9 60 4.4 NNE 19 28 10 15 1018.9 1018.9 0.0
17/01:30pm 20.3 18.0 13.0 63 4.2 NNE 17 24 9 13 1019.3 - 0.0
17/01:00pm 19.7 17.5 13.2 66 3.7 NNE 17 26 9 14 1019.7 1019.7 0.0
17/12:30pm 18.4 16.5 11.9 66 3.6 NNE 13 22 7 12 1020.2 - 0.0
17/12:00pm 18.2 16.4 12.0 67 3.4 NE 13 22 7 12 1020.5 1020.4 0.0
17/11:30am 18.1 16.9 12.8 71 3.0 NE 11 17 6 9 1020.8 - 0.0
17/11:00am 18.8 17.8 12.3 66 3.6 ENE 9 15 5 8 1021.0 1020.9 0.0
17/10:30am 17.5 17.4 12.0 70 3.0 ENE 4 7 2 4 1021.2 - 0.0
17/10:00am 16.6 16.7 12.6 77 2.2 E 4 7 2 4 1021.1 1021.0 0.0
17/09:30am 14.0 13.3 11.5 85 1.3 WNW 6 9 3 5 1021.3 - 0.0
17/09:00am 12.8 11.3 10.5 86 1.2 WNW 9 13 5 7 1021.3 1021.2 0.0
17/08:30am 12.1 10.1 10.3 89 0.9 WNW 11 13 6 7 1021.3 - 0.0
17/08:00am 11.2 9.2 10.1 93 0.6 WNW 11 13 6 7 1021.4 1021.3 0.0
17/07:30am 10.3 8.5 9.4 94 0.4 WNW 9 11 5 6 1021.2 - 0.0
17/07:00am 10.8 9.6 9.7 93 0.6 W 6 9 3 5 1021.0 1020.9 0.0
17/06:30am 10.0 8.5 9.2 95 0.4 WNW 7 11 4 6 1020.7 - 0.0
17/06:00am 10.0 8.1 9.1 94 0.4 WNW 9 9 5 5 1020.5 1020.4 0.0
17/05:30am 11.5 11.7 10.7 95 0.4 CALM 0 0 0 0 1020.6 - 0.0
17/05:00am 10.8 10.5 10.2 96 0.3 N 2 4 1 2 1020.5 1020.4 0.0
17/04:30am 10.2 9.4 9.6 96 0.3 NW 4 4 2 2 1020.5 - 0.0
17/04:00am 10.3 9.2 9.8 97 0.3 NW 6 7 3 4 1020.5 1020.4 0.0
17/03:30am 9.6 7.7 9.1 97 0.2 W 9 11 5 6 1020.4 - 0.0
17/03:00am 9.7 8.8 9.1 96 0.3 NNW 4 6 2 3 1020.2 1020.1 0.0
17/02:30am 9.6 7.6 8.8 95 0.4 WNW 9 9 5 5 1020.3 - 0.0
17/02:00am 10.6 9.3 9.2 91 0.7 WNW 6 7 3 4 1020.5 1020.4 0.0
17/01:30am 12.7 11.4 9.9 83 1.4 N 7 9 4 5 1020.6 - 0.0
17/01:00am 12.8 11.8 10.9 88 1.0 N 7 9 4 5 1020.9 1020.8 0.0
17/12:30am 12.4 11.3 10.6 89 0.9 NNW 7 9 4 5 1021.1 - 0.0
17/12:00am 12.4 11.6 11.0 91 0.7 NNW 6 7 3 4 1021.1 1021.0 0.0
 
Date/Time
EST
Temp
°C
App
Temp
°C
Dew
Point
Rel
Hum
%
Delta-T
°C
Wind Press
QNH
hPa
Press
MSL
hPa
Rain
since 9 am
mm
Dir
 
Spd
km/h
Gust
km/h
Spd
kts
Gust
kts
16/11:30pm 12.2 11.2 10.4 89 0.9 NNE 6 7 3 4 1021.1 - 0.0
16/11:00pm 12.9 13.1 10.4 85 1.3 CALM 0 2 0 1 1021.3 1021.2 0.0
16/10:30pm 13.5 12.7 11.0 85 1.3 NNW 6 9 3 5 1021.3 - 0.0
16/10:00pm 12.8 11.8 10.9 88 1.0 NW 7 9 4 5 1021.4 1021.3 0.0
16/09:30pm 13.4 12.4 11.1 86 1.2 N 7 13 4 7 1021.4 - 0.0
16/09:00pm 13.6 12.3 11.3 86 1.2 N 9 15 5 8 1021.4 1021.3 0.0

Other Formats:

Comma delimited format used in spreadsheet applications
http://www.bom.gov.au/fwo/IDT60801/IDT60801.94987.axf

JavaScript Object Notation format (JSON) in row-major order
http://www.bom.gov.au/fwo/IDT60801/IDT60801.94987.json